createdAt,value
2018-04-13T00:00:43.179Z,10.00
2018-04-13T00:03:10.626Z,10.00
2018-04-13T00:05:38.067Z,10.10
2018-04-13T00:08:06.288Z,10.20
2018-04-13T00:10:33.732Z,10.10
2018-04-13T00:13:01.183Z,10.30
2018-04-13T00:15:28.643Z,10.20
2018-04-13T00:17:56.096Z,10.30
2018-04-13T00:20:23.538Z,10.30
2018-04-13T00:22:50.983Z,10.30
2018-04-13T00:25:19.190Z,10.20
2018-04-13T00:27:46.643Z,10.20
2018-04-13T00:30:14.096Z,10.20
2018-04-13T00:32:41.547Z,10.10
2018-04-13T00:35:08.995Z,10.10
2018-04-13T00:37:36.446Z,10.20
2018-04-13T00:40:04.662Z,10.10
2018-04-13T00:42:32.104Z,10.10
2018-04-13T00:44:59.551Z,10.10
2018-04-13T00:47:27.008Z,10.10
2018-04-13T00:49:54.449Z,10.10
2018-04-13T00:52:22.650Z,10.30
2018-04-13T00:54:50.104Z,10.20
2018-04-13T00:57:17.540Z,10.30
2018-04-13T00:59:45.761Z,10.40
2018-04-13T01:02:13.246Z,10.40
2018-04-13T01:04:40.663Z,10.30
2018-04-13T01:07:08.100Z,10.20
2018-04-13T01:09:35.547Z,10.20
2018-04-13T01:12:02.996Z,10.30
2018-04-13T01:14:31.211Z,10.30
2018-04-13T01:16:58.663Z,10.30
2018-04-13T01:19:26.112Z,10.30
2018-04-13T01:21:53.559Z,10.40
2018-04-13T01:24:21.013Z,10.40
2018-04-13T01:26:48.459Z,10.40
2018-04-13T01:29:16.672Z,10.20
2018-04-13T01:31:44.118Z,10.20
2018-04-13T01:34:11.575Z,10.30
2018-04-13T01:36:39.017Z,10.40
2018-04-13T01:39:06.470Z,10.30
2018-04-13T01:41:34.671Z,10.20
2018-04-13T01:44:02.121Z,10.10
2018-04-13T01:46:29.559Z,10.10
2018-04-13T01:48:57.008Z,10.00
2018-04-13T01:51:25.216Z,9.90
2018-04-13T01:53:52.670Z,9.90
2018-04-13T01:56:20.111Z,9.90
2018-04-13T01:58:47.564Z,9.80
2018-04-13T02:01:15.004Z,9.80
2018-04-13T02:03:43.217Z,9.70
2018-04-13T02:06:10.652Z,9.70
2018-04-13T02:08:38.113Z,9.70
2018-04-13T02:11:06.309Z,9.70
2018-04-13T02:13:33.743Z,9.70
2018-04-13T02:16:01.200Z,9.70
2018-04-13T02:21:03.401Z,10.00
2018-04-13T02:23:30.848Z,9.90
2018-04-13T02:25:58.307Z,10.00
2018-04-13T02:28:25.748Z,10.20
2018-04-13T02:30:53.964Z,10.30
2018-04-13T02:33:21.417Z,10.30
2018-04-13T02:35:48.871Z,10.30
2018-04-13T02:38:16.308Z,10.40
2018-04-13T02:40:43.763Z,10.50
2018-04-13T02:43:11.212Z,10.50
2018-04-13T02:45:39.432Z,10.40
2018-04-13T02:48:06.868Z,10.40
2018-04-13T02:50:34.323Z,10.30
2018-04-13T02:53:01.764Z,10.40
2018-04-13T02:55:29.227Z,10.50
2018-04-13T02:57:56.672Z,10.60
2018-04-13T03:00:24.886Z,10.70
2018-04-13T03:02:52.327Z,10.70
2018-04-13T03:05:19.786Z,10.60
2018-04-13T03:07:47.224Z,10.60
2018-04-13T03:10:14.684Z,10.60
2018-04-13T03:12:42.135Z,10.60
2018-04-13T03:15:10.357Z,10.60
2018-04-13T03:17:37.793Z,10.60
2018-04-13T03:20:05.254Z,10.60
2018-04-13T03:22:32.696Z,10.60
2018-04-13T03:25:00.162Z,10.60
2018-04-13T03:27:27.604Z,10.70
2018-04-13T03:29:55.047Z,10.80
2018-04-13T03:32:23.272Z,10.80
2018-04-13T03:34:50.708Z,10.80
2018-04-13T03:37:18.165Z,10.90
2018-04-13T03:39:45.603Z,10.90
2018-04-13T03:42:13.063Z,10.90
2018-04-13T03:44:40.503Z,10.80
2018-04-13T03:47:08.773Z,10.90
2018-04-13T03:49:36.175Z,10.90
2018-04-13T03:52:03.631Z,11.00
2018-04-13T03:54:31.074Z,11.00
2018-04-13T03:56:58.537Z,11.00
2018-04-13T03:59:25.971Z,11.00
2018-04-13T04:01:54.186Z,11.10
2018-04-13T04:04:21.631Z,11.10
2018-04-13T04:06:49.084Z,11.10
2018-04-13T04:09:16.527Z,11.10
2018-04-13T04:11:43.984Z,11.20
2018-04-13T04:14:11.419Z,11.30
2018-04-13T04:16:39.631Z,11.60
2018-04-13T04:19:07.076Z,11.60
2018-04-13T04:21:46.381Z,11.60
2018-04-13T04:24:25.733Z,11.60
2018-04-13T04:26:53.188Z,11.70
2018-04-13T04:29:21.392Z,11.60
2018-04-13T04:31:48.854Z,11.60
2018-04-13T04:34:16.295Z,11.60
2018-04-13T04:36:43.750Z,11.60
2018-04-13T04:39:11.191Z,11.70
2018-04-13T04:41:39.409Z,11.60
2018-04-13T04:44:06.862Z,11.60
2018-04-13T04:46:34.299Z,11.60
2018-04-13T04:49:01.748Z,11.50
2018-04-13T04:51:29.191Z,11.50
2018-04-13T04:53:57.477Z,11.50
2018-04-13T04:56:25.688Z,11.50
2018-04-13T04:58:53.132Z,11.50
2018-04-13T05:01:20.579Z,11.50
2018-04-13T05:03:48.101Z,11.40
2018-04-13T05:06:15.551Z,11.40
2018-04-13T05:08:43.019Z,11.40
2018-04-13T05:11:10.480Z,11.40
2018-04-13T05:13:37.957Z,11.30
2018-04-13T05:16:06.177Z,11.30
2018-04-13T05:18:33.646Z,11.30
2018-04-13T05:21:01.087Z,11.30
2018-04-13T05:23:28.552Z,11.30
2018-04-13T05:25:56.008Z,11.30
2018-04-13T05:28:23.459Z,11.30
2018-04-13T05:30:50.924Z,11.30
2018-04-13T05:33:18.388Z,11.30
2018-04-13T05:35:45.839Z,11.30
2018-04-13T05:38:13.292Z,11.40
2018-04-13T05:40:40.739Z,11.30
2018-04-13T05:43:08.193Z,11.40
2018-04-13T05:45:35.630Z,11.40
2018-04-13T05:48:03.104Z,11.40
2018-04-13T05:50:30.543Z,11.40
2018-04-13T05:52:57.989Z,11.50
2018-04-13T05:55:26.203Z,11.40
2018-04-13T05:57:53.647Z,11.40
2018-04-13T06:00:21.101Z,11.50
2018-04-13T06:02:48.541Z,11.50
2018-04-13T06:05:15.986Z,11.50
2018-04-13T06:07:44.195Z,11.40
2018-04-13T06:10:11.650Z,11.40
2018-04-13T06:12:39.096Z,11.50
2018-04-13T06:15:06.551Z,11.50
2018-04-13T06:17:34.008Z,11.60
2018-04-13T06:20:02.225Z,11.60
2018-04-13T06:22:29.659Z,11.60
2018-04-13T06:24:57.114Z,11.60
2018-04-13T06:27:24.553Z,11.60
2018-04-13T06:29:52.003Z,11.60
2018-04-13T06:32:20.215Z,11.60
2018-04-13T06:34:47.671Z,11.60
2018-04-13T06:37:15.149Z,11.60
2018-04-13T06:39:42.570Z,11.60
2018-04-13T06:42:10.017Z,11.60
2018-04-13T06:44:37.471Z,11.60
2018-04-13T06:47:05.667Z,11.70
2018-04-13T06:49:33.126Z,11.70
2018-04-13T06:52:00.580Z,11.70
2018-04-13T06:54:28.039Z,11.70
2018-04-13T06:56:55.480Z,11.80
2018-04-13T06:59:22.927Z,11.80
2018-04-13T07:01:50.385Z,11.80
2018-04-13T07:04:18.580Z,11.90
2018-04-13T07:06:46.040Z,11.90
2018-04-13T07:09:13.492Z,11.90
2018-04-13T07:11:40.938Z,12.00
2018-04-13T07:14:08.376Z,11.90
2018-04-13T07:16:36.603Z,11.90
2018-04-13T07:19:04.045Z,11.90
2018-04-13T07:21:31.498Z,11.90
2018-04-13T07:23:58.940Z,11.90
2018-04-13T07:26:26.396Z,11.90
2018-04-13T07:28:53.831Z,11.90
2018-04-13T07:31:21.288Z,11.90
2018-04-13T07:33:48.730Z,11.90
2018-04-13T07:36:16.192Z,11.90
2018-04-13T07:38:43.623Z,11.90
2018-04-13T07:41:11.080Z,11.80
2018-04-13T07:43:38.657Z,11.80
2018-04-13T07:46:05.992Z,11.80
2018-04-13T07:48:33.439Z,11.80
2018-04-13T07:51:00.885Z,11.80
2018-04-13T07:53:28.331Z,11.80
2018-04-13T07:55:55.792Z,11.80
2018-04-13T07:58:23.231Z,11.80
2018-04-13T08:00:51.460Z,11.80
2018-04-13T08:03:18.897Z,11.80
2018-04-13T08:05:46.331Z,11.80
2018-04-13T08:08:13.783Z,11.70
2018-04-13T08:10:41.989Z,11.70
2018-04-13T08:13:09.431Z,11.70
2018-04-13T08:15:36.889Z,11.70
2018-04-13T08:18:04.380Z,11.70
2018-04-13T08:20:32.536Z,11.60
2018-04-13T08:22:59.985Z,11.60
2018-04-13T08:25:27.424Z,11.70
2018-04-13T08:27:54.939Z,11.70
2018-04-13T08:30:22.388Z,11.70
2018-04-13T08:32:49.834Z,11.70
2018-04-13T08:35:17.271Z,11.60
2018-04-13T08:37:44.734Z,11.60
2018-04-13T08:40:12.167Z,11.50
2018-04-13T08:42:39.620Z,11.50
2018-04-13T08:45:07.824Z,11.50
2018-04-13T08:47:35.275Z,11.50
2018-04-13T08:50:02.715Z,11.50
2018-04-13T08:52:30.160Z,11.40
2018-04-13T08:54:58.391Z,11.40
2018-04-13T08:57:25.816Z,11.40
2018-04-13T08:59:53.277Z,11.40
2018-04-13T09:02:20.738Z,11.40
2018-04-13T09:04:48.180Z,11.40
2018-04-13T09:07:15.631Z,11.40
2018-04-13T09:09:43.072Z,11.40
2018-04-13T09:12:11.303Z,11.40
2018-04-13T09:14:39.653Z,11.40
2018-04-13T09:17:07.091Z,11.40
2018-04-13T09:19:35.308Z,11.50
2018-04-13T09:22:02.744Z,11.40
2018-04-13T09:24:30.191Z,11.50
2018-04-13T09:26:57.633Z,11.50
2018-04-13T09:29:25.853Z,11.60
2018-04-13T09:31:53.292Z,11.60
2018-04-13T09:34:20.745Z,11.50
2018-04-13T09:36:48.185Z,11.40
2018-04-13T09:39:16.395Z,11.30
2018-04-13T09:41:43.836Z,11.20
2018-04-13T09:44:11.283Z,11.20
2018-04-13T09:46:38.718Z,11.10
2018-04-13T09:49:06.941Z,11.10
2018-04-13T09:51:34.384Z,11.10
2018-04-13T09:54:01.837Z,11.10
2018-04-13T09:56:29.276Z,11.00
2018-04-13T09:58:57.510Z,11.10
2018-04-13T10:01:24.943Z,11.10
2018-04-13T10:04:05.047Z,11.20
2018-04-13T10:06:33.254Z,11.10
2018-04-13T10:09:01.039Z,11.00
2018-04-13T10:11:28.468Z,11.20
2018-04-13T10:13:55.915Z,11.30
2018-04-13T10:16:24.130Z,11.50
2018-04-13T10:18:51.587Z,11.50
2018-04-13T10:21:19.036Z,11.70
2018-04-13T10:23:46.475Z,12.00
2018-04-13T10:26:19.819Z,12.20
2018-04-13T10:28:47.266Z,12.40
2018-04-13T10:31:14.722Z,12.60
2018-04-13T10:33:42.160Z,12.80
2018-04-13T10:36:09.613Z,13.00
2018-04-13T10:38:37.047Z,13.50
2018-04-13T10:41:04.505Z,13.80
2018-04-13T10:43:32.710Z,15.20
2018-04-13T10:46:00.169Z,15.20
2018-04-13T10:48:27.615Z,15.80
2018-04-13T10:50:55.080Z,16.20
2018-04-13T10:53:22.529Z,16.60
2018-04-13T10:55:50.949Z,16.30
2018-04-13T10:58:18.473Z,16.40
2018-04-13T11:00:45.943Z,16.40
2018-04-13T11:03:13.402Z,16.40
2018-04-13T11:05:40.865Z,16.40
2018-04-13T11:08:08.303Z,16.50
2018-04-13T11:10:35.760Z,16.60
2018-04-13T11:13:03.204Z,16.50
2018-04-13T11:15:30.659Z,16.60
2018-04-13T11:17:58.875Z,16.70
2018-04-13T11:20:26.335Z,16.70
2018-04-13T11:22:53.813Z,16.70
2018-04-13T11:25:21.264Z,16.70
2018-04-13T11:27:48.719Z,16.90
2018-04-13T11:30:16.939Z,17.20
2018-04-13T11:32:45.300Z,17.50
2018-04-13T11:35:12.743Z,17.40
2018-04-13T11:37:40.199Z,17.60
2018-04-13T11:40:07.651Z,17.50
2018-04-13T11:42:36.205Z,17.70
2018-04-13T11:45:03.648Z,17.80
2018-04-13T11:47:31.890Z,18.20
2018-04-13T11:49:59.327Z,18.20
2018-04-13T11:52:26.788Z,18.30
2018-04-13T11:54:54.233Z,18.40
2018-04-13T11:57:21.688Z,18.60
2018-04-13T11:59:59.653Z,18.60
2018-04-13T12:02:27.868Z,18.60
2018-04-13T12:04:55.312Z,18.50
2018-04-13T12:07:22.763Z,18.60
2018-04-13T12:09:50.212Z,18.60
2018-04-13T12:12:17.671Z,18.40
2018-04-13T12:14:45.116Z,18.60
2018-04-13T12:17:13.331Z,18.50
2018-04-13T12:19:40.776Z,18.40
2018-04-13T12:22:08.233Z,18.50
2018-04-13T12:24:35.687Z,18.60
2018-04-13T12:27:03.151Z,18.20
2018-04-13T12:29:30.592Z,18.20
2018-04-13T12:31:58.045Z,18.20
2018-04-13T12:34:25.494Z,18.30
2018-04-13T12:36:53.704Z,18.40
2018-04-13T12:39:21.155Z,18.40
2018-04-13T12:41:48.592Z,18.50
2018-04-13T12:44:16.048Z,18.50
2018-04-13T12:46:43.490Z,18.50
2018-04-13T12:49:11.720Z,18.60
2018-04-13T12:51:39.179Z,18.50
2018-04-13T12:54:06.687Z,18.40
2018-04-13T12:56:34.108Z,18.10
2018-04-13T12:59:01.551Z,18.00
2018-04-13T13:01:29.125Z,18.00
2018-04-13T13:03:56.599Z,17.90
2018-04-13T13:06:24.061Z,17.70
2018-04-13T13:08:52.323Z,17.70
2018-04-13T13:11:19.788Z,17.70
2018-04-13T13:13:47.250Z,17.70
2018-04-13T13:16:14.717Z,17.50
2018-04-13T13:18:42.957Z,17.40
2018-04-13T13:21:10.425Z,17.40
2018-04-13T13:23:37.896Z,17.40
2018-04-13T13:26:05.391Z,17.40
2018-04-13T13:28:32.874Z,17.40
2018-04-13T13:31:00.336Z,17.40
2018-04-13T13:33:27.796Z,17.30
2018-04-13T13:35:55.259Z,17.40
2018-04-13T13:38:22.717Z,17.30
2018-04-13T13:40:50.284Z,17.30
2018-04-13T13:43:17.770Z,17.30
2018-04-13T13:45:45.993Z,17.50
2018-04-13T13:48:13.442Z,17.50
2018-04-13T13:50:40.924Z,17.60
2018-04-13T13:53:08.396Z,17.60
2018-04-13T13:55:35.878Z,17.50
2018-04-13T13:58:04.093Z,17.40
2018-04-13T14:00:31.637Z,17.40
2018-04-13T14:02:59.093Z,17.20
2018-04-13T14:05:26.553Z,17.30
2018-04-13T14:07:54.028Z,17.20
2018-04-13T14:10:21.493Z,17.20
2018-04-13T14:12:48.959Z,17.10
2018-04-13T14:15:16.441Z,17.00
2018-04-13T14:17:43.904Z,17.10
2018-04-13T14:20:11.381Z,17.20
2018-04-13T14:22:39.673Z,17.30
2018-04-13T14:25:07.092Z,17.30
2018-04-13T14:27:34.585Z,17.30
2018-04-13T14:30:02.053Z,17.30
2018-04-13T14:32:29.491Z,17.20
2018-04-13T14:34:56.956Z,17.10
2018-04-13T14:37:25.283Z,17.10
2018-04-13T14:39:53.441Z,17.10
2018-04-13T14:42:20.904Z,17.10
2018-04-13T14:44:48.472Z,17.10
2018-04-13T14:47:15.971Z,17.10
2018-04-13T14:49:44.319Z,17.00
2018-04-13T14:52:11.783Z,17.00
2018-04-13T14:54:39.365Z,17.10
2018-04-13T14:57:07.591Z,17.10
2018-04-13T14:59:35.066Z,17.00
2018-04-13T15:02:02.546Z,17.10
2018-04-13T15:04:30.801Z,17.10
2018-04-13T15:06:58.293Z,17.10
2018-04-13T15:09:26.516Z,17.20
2018-04-13T15:11:54.026Z,17.20
2018-04-13T15:14:22.269Z,17.20
2018-04-13T15:16:50.600Z,17.20
2018-04-13T15:19:18.068Z,17.30
2018-04-13T15:21:45.530Z,17.30
2018-04-13T15:24:12.985Z,17.30
2018-04-13T15:26:40.446Z,17.30
2018-04-13T15:29:08.027Z,17.40
2018-04-13T15:31:35.488Z,17.40
2018-04-13T15:34:02.940Z,17.40
2018-04-13T15:36:30.388Z,17.50
2018-04-13T15:38:57.827Z,17.50
2018-04-13T15:41:25.282Z,17.40
2018-04-13T15:43:52.716Z,17.50
2018-04-13T15:46:20.163Z,17.60
2018-04-13T15:48:48.375Z,17.60
2018-04-13T15:51:15.833Z,17.60
2018-04-13T15:53:43.285Z,17.60
2018-04-13T15:56:10.736Z,17.60
2018-04-13T15:58:38.183Z,17.70
2018-04-13T16:01:06.330Z,17.60
2018-04-13T16:03:34.544Z,17.40
2018-04-13T16:06:01.997Z,17.40
2018-04-13T16:08:29.438Z,17.30
2018-04-13T16:10:56.879Z,17.30
2018-04-13T16:13:25.094Z,17.20
2018-04-13T16:15:52.545Z,17.20
2018-04-13T16:18:19.992Z,17.10
2018-04-13T16:20:47.427Z,17.10
2018-04-13T16:23:15.654Z,17.40
2018-04-13T16:25:43.095Z,17.30
2018-04-13T16:28:10.556Z,17.50
2018-04-13T16:30:37.993Z,17.60
2018-04-13T16:33:05.449Z,17.60
2018-04-13T16:35:32.893Z,17.60
2018-04-13T16:38:01.103Z,17.30
2018-04-13T16:40:28.607Z,17.30
2018-04-13T16:42:56.016Z,17.20
2018-04-13T16:45:23.458Z,17.00
2018-04-13T16:47:50.907Z,17.00
2018-04-13T16:50:18.351Z,16.90
2018-04-13T16:52:46.571Z,16.80
2018-04-13T16:55:14.020Z,16.70
2018-04-13T16:57:41.475Z,16.70
2018-04-13T17:00:08.926Z,16.80
2018-04-13T17:02:36.376Z,16.60
2018-04-13T17:05:03.851Z,16.40
2018-04-13T17:07:31.307Z,16.20
2018-04-13T17:09:58.745Z,15.90
2018-04-13T17:12:26.204Z,15.70
2018-04-13T17:14:53.657Z,15.70
2018-04-13T17:17:21.115Z,15.50
2018-04-13T17:19:48.552Z,15.40
2018-04-13T17:22:16.767Z,15.30
2018-04-13T17:24:44.215Z,15.30
2018-04-13T17:27:11.669Z,15.30
2018-04-13T17:29:39.123Z,15.30
2018-04-13T17:32:06.555Z,15.30
2018-04-13T17:34:34.791Z,15.30
2018-04-13T17:37:02.235Z,15.30
2018-04-13T17:39:29.711Z,15.30
2018-04-13T17:41:57.161Z,15.20
2018-04-13T17:44:24.627Z,15.30
2018-04-13T17:46:52.060Z,15.40
2018-04-13T17:49:19.529Z,15.40
2018-04-13T17:51:46.971Z,15.30
2018-04-13T17:54:14.427Z,15.30
2018-04-13T17:56:41.871Z,15.30
2018-04-13T17:59:09.343Z,15.20
2018-04-13T18:01:36.780Z,15.30
2018-04-13T18:04:04.227Z,15.30
2018-04-13T18:06:32.440Z,15.20
2018-04-13T18:08:59.887Z,15.10
2018-04-13T18:11:27.330Z,14.90
2018-04-13T18:13:54.796Z,14.70
2018-04-13T18:16:22.240Z,14.50
2018-04-13T18:18:50.455Z,14.20
2018-04-13T18:21:17.919Z,14.20
2018-04-13T18:23:45.363Z,14.30
2018-04-13T18:26:12.819Z,14.20
2018-04-13T18:28:40.275Z,14.10
2018-04-13T18:31:07.730Z,13.90
2018-04-13T18:33:35.174Z,13.80
2018-04-13T18:36:02.634Z,13.80
2018-04-13T18:38:31.458Z,13.90
2018-04-13T18:40:58.912Z,13.70
2018-04-13T18:43:26.355Z,13.70
2018-04-13T18:45:54.926Z,13.60
2018-04-13T18:48:22.364Z,13.50
2018-04-13T18:50:49.819Z,13.40
2018-04-13T18:53:17.266Z,13.30
2018-04-13T18:55:45.483Z,13.20
2018-04-13T18:58:12.987Z,13.20
2018-04-13T19:00:40.385Z,13.10
2018-04-13T19:03:07.973Z,13.10
2018-04-13T19:05:35.614Z,12.90
2018-04-13T19:08:03.149Z,12.80
2018-04-13T19:10:30.611Z,12.70
2018-04-13T19:12:58.066Z,12.60
2018-04-13T19:15:25.527Z,12.50
2018-04-13T19:17:54.561Z,12.40
2018-04-13T19:20:22.034Z,12.40
2018-04-13T19:22:49.489Z,12.30
2018-04-13T19:25:16.999Z,12.20
2018-04-13T19:27:44.497Z,12.10
2018-04-13T19:30:11.994Z,12.20
2018-04-13T19:32:40.234Z,12.10
2018-04-13T19:35:07.758Z,12.00
2018-04-13T19:37:35.249Z,12.00
2018-04-13T19:40:03.550Z,11.80
2018-04-13T19:42:30.992Z,11.70
2018-04-13T19:44:58.512Z,11.70
2018-04-13T19:47:26.839Z,11.60
2018-04-13T19:49:54.332Z,11.60
2018-04-13T19:52:21.833Z,11.60
2018-04-13T19:54:49.366Z,11.60
2018-04-13T19:57:16.854Z,11.70
2018-04-13T19:59:44.343Z,11.70
2018-04-13T20:02:12.621Z,11.70
2018-04-13T20:04:40.881Z,11.70
2018-04-13T20:07:08.381Z,11.70
2018-04-13T20:09:35.866Z,11.60
2018-04-13T20:12:03.385Z,11.50
2018-04-13T20:14:30.885Z,11.40
2018-04-13T20:16:58.418Z,11.30
2018-04-13T20:19:25.895Z,11.30
2018-04-13T20:21:53.390Z,11.30
2018-04-13T20:24:20.880Z,11.30
2018-04-13T20:26:48.394Z,11.30
2018-04-13T20:29:15.924Z,11.30
2018-04-13T20:31:43.442Z,11.30
2018-04-13T20:34:11.717Z,11.20
2018-04-13T20:36:39.977Z,11.10
2018-04-13T20:39:08.245Z,11.10
2018-04-13T20:41:35.755Z,11.10
2018-04-13T20:44:03.249Z,11.00
2018-04-13T20:46:30.748Z,11.00
2018-04-13T20:48:59.037Z,11.00
2018-04-13T20:51:27.288Z,11.00
2018-04-13T20:53:55.564Z,11.00
2018-04-13T20:56:23.823Z,10.90
2018-04-13T20:58:51.344Z,10.90
2018-04-13T21:01:18.869Z,10.90
2018-04-13T21:03:47.116Z,10.80
2018-04-13T21:06:14.600Z,10.80
2018-04-13T21:08:42.850Z,11.00
2018-04-13T21:11:10.349Z,10.90
2018-04-13T21:13:38.575Z,10.90
2018-04-13T21:16:06.098Z,10.90
2018-04-13T21:18:33.629Z,10.90
2018-04-13T21:21:02.054Z,10.90
2018-04-13T21:23:29.594Z,10.80
2018-04-13T21:25:57.080Z,10.80
2018-04-13T21:28:24.528Z,10.80
2018-04-13T21:30:53.074Z,10.70
2018-04-13T21:33:20.615Z,10.70
2018-04-13T21:35:48.156Z,10.50
2018-04-13T21:38:15.678Z,10.40
2018-04-13T21:40:43.219Z,10.40
2018-04-13T21:43:10.749Z,10.30
2018-04-13T21:45:39.037Z,10.40
2018-04-13T21:48:07.354Z,10.40
2018-04-13T21:50:34.884Z,10.40
2018-04-13T21:53:02.429Z,10.40
2018-04-13T21:55:29.932Z,10.40
2018-04-13T21:57:57.440Z,10.40
2018-04-13T22:00:24.973Z,10.40
2018-04-13T22:02:52.504Z,10.30
2018-04-13T22:05:20.041Z,10.30
2018-04-13T22:07:47.539Z,10.20
2018-04-13T22:10:15.061Z,10.20
2018-04-13T22:12:54.478Z,10.10
2018-04-13T22:15:26.526Z,10.10
2018-04-13T22:17:54.042Z,10.10
2018-04-13T22:20:22.313Z,10.10
2018-04-13T22:22:49.846Z,10.10
2018-04-13T22:25:17.360Z,10.10
2018-04-13T22:27:44.862Z,10.10
2018-04-13T22:30:13.136Z,10.10
2018-04-13T22:32:41.396Z,10.00
2018-04-13T22:35:08.967Z,10.00
2018-04-13T22:37:37.252Z,9.90
2018-04-13T22:40:05.543Z,9.90
2018-04-13T22:42:33.085Z,9.80
2018-04-13T22:45:01.400Z,9.60
2018-04-13T22:47:28.918Z,9.60
2018-04-13T22:49:57.209Z,9.40
2018-04-13T22:52:24.699Z,9.40
2018-04-13T22:54:52.202Z,9.30
2018-04-13T22:57:20.456Z,9.20
2018-04-13T22:59:47.954Z,9.20
2018-04-13T23:02:16.237Z,9.10
2018-04-13T23:04:43.741Z,9.10
2018-04-13T23:07:11.252Z,9.20
2018-04-13T23:09:39.533Z,9.10
2018-04-13T23:12:07.069Z,9.10
2018-04-13T23:14:34.592Z,9.10
2018-04-13T23:17:02.082Z,9.10
2018-04-13T23:19:29.577Z,9.00
2018-04-13T23:21:57.105Z,8.90
2018-04-13T23:24:25.377Z,8.80
2018-04-13T23:26:53.661Z,8.90
2018-04-13T23:29:21.933Z,8.80
2018-04-13T23:31:50.203Z,8.80
2018-04-13T23:34:17.708Z,8.80
2018-04-13T23:36:45.228Z,8.80
2018-04-13T23:39:13.481Z,8.60
2018-04-13T23:41:40.972Z,8.60
2018-04-13T23:44:09.218Z,8.60
2018-04-13T23:46:36.710Z,8.50
2018-04-13T23:49:04.221Z,8.50
2018-04-13T23:51:31.730Z,8.50
2018-04-13T23:53:59.250Z,8.40
2018-04-13T23:56:26.751Z,8.50
2018-04-13T23:58:54.277Z,8.50
